Time;durP1;ratioP1;P1;durP2;ratioP2;P2;SDS_P1;SDS_P2;PMS_P1;PMS_P2;Temp;Humidity;BMP_temperature;BMP_pressure;BME280_temperature;BME280_humidity;BME280_pressure;Samples;Min_cycle;Max_cycle;Signal;HPM_P1;HPM_P2
2023/11/13 00:02:16;;;;;;;1999.90;999.90;;;6.90;99.90;;;;;;5075426;28;20175;-66
2023/11/13 00:04:41;;;;;;;1999.90;999.90;;;6.90;99.90;;;;;;5056892;28;20217;-66
2023/11/13 00:07:07;;;;;;;1999.90;999.90;;;7.00;99.90;;;;;;5075075;28;20595;-66
2023/11/13 00:09:32;;;;;;;1999.90;999.90;;;7.00;99.90;;;;;;5074908;28;20179;-66
2023/11/13 00:11:58;;;;;;;1999.90;999.90;;;7.00;99.90;;;;;;5057015;28;20205;-66
2023/11/13 00:14:24;;;;;;;1999.90;999.90;;;7.00;99.90;;;;;;5074708;28;20249;-66
2023/11/13 00:16:49;;;;;;;1999.90;999.90;;;7.00;99.90;;;;;;5074943;28;20626;-66
2023/11/13 00:19:17;;;;;;;1999.90;999.90;;;6.90;99.90;;;;;;5074677;28;20202;-66
2023/11/13 00:21:43;;;;;;;1999.90;999.90;;;6.90;99.90;;;;;;5074858;28;20178;-66
2023/11/13 00:24:10;;;;;;;1999.90;999.90;;;6.90;99.90;;;;;;5074631;28;20456;-66
2023/11/13 00:26:35;;;;;;;1999.90;999.90;;;7.00;99.90;;;;;;5074613;28;20453;-66
2023/11/13 00:29:02;;;;;;;1999.90;999.90;;;7.00;99.90;;;;;;5074774;28;20459;-66
2023/11/13 00:31:28;;;;;;;1999.90;999.90;;;7.00;99.90;;;;;;5073971;28;20175;-66
2023/11/13 00:33:53;;;;;;;1999.90;999.90;;;6.90;99.90;;;;;;5074364;28;20426;-66
2023/11/13 00:36:19;;;;;;;1999.90;999.90;;;7.00;99.90;;;;;;5074559;28;20822;-66
2023/11/13 00:38:45;;;;;;;1999.90;999.90;;;7.10;99.90;;;;;;5074494;28;20582;-66
2023/11/13 00:41:11;;;;;;;1999.90;999.90;;;7.30;99.90;;;;;;5056816;28;20182;-66
2023/11/13 00:43:37;;;;;;;1999.90;999.90;;;7.10;99.90;;;;;;5056201;28;20413;-66
2023/11/13 00:46:03;;;;;;;1999.90;999.90;;;7.20;99.90;;;;;;5074339;28;20445;-66
2023/11/13 00:48:28;;;;;;;1999.90;999.90;;;7.10;99.90;;;;;;5074240;28;20815;-66
2023/11/13 00:50:54;;;;;;;1999.90;999.90;;;7.00;99.90;;;;;;5074286;28;20625;-66
2023/11/13 00:53:20;;;;;;;1999.90;999.90;;;7.30;99.90;;;;;;5074079;28;20167;-66
2023/11/13 00:55:45;;;;;;;1999.90;999.90;;;7.30;99.90;;;;;;5074165;28;20175;-66
2023/11/13 00:58:11;;;;;;;1999.90;999.90;;;7.20;99.90;;;;;;5074105;28;20193;-66
2023/11/13 01:00:36;;;;;;;1999.90;999.90;;;7.30;99.90;;;;;;5074110;28;20166;-66
2023/11/13 01:03:02;;;;;;;1999.90;999.90;;;7.30;99.90;;;;;;5073900;28;20171;-66
2023/11/13 01:05:28;;;;;;;1999.90;999.90;;;7.30;99.90;;;;;;5073910;28;20202;-66
2023/11/13 01:07:53;;;;;;;1999.90;999.90;;;7.30;99.90;;;;;;5073982;28;20534;-66
2023/11/13 01:10:19;;;;;;;1999.90;999.90;;;7.30;99.90;;;;;;5073791;28;20213;-66
2023/11/13 01:12:45;;;;;;;1999.90;999.90;;;7.30;99.90;;;;;;5073855;28;20163;-66
2023/11/13 01:15:12;;;;;;;1999.90;999.90;;;7.30;99.90;;;;;;5073711;28;20170;-66
2023/11/13 01:17:38;;;;;;;1999.90;999.90;;;7.30;99.90;;;;;;5073884;28;20459;-66
2023/11/13 01:20:05;;;;;;;1999.90;999.90;;;7.40;99.90;;;;;;5073573;28;20874;-66
2023/11/13 01:22:32;;;;;;;1999.90;999.90;;;7.50;99.90;;;;;;5073707;28;20410;-66
2023/11/13 01:24:57;;;;;;;1999.90;999.90;;;7.50;99.90;;;;;;5073376;28;20405;-66
2023/11/13 01:27:23;;;;;;;1999.90;999.90;;;7.50;99.90;;;;;;5073590;28;20405;-66
2023/11/13 01:29:49;;;;;;;1999.90;999.90;;;7.60;99.90;;;;;;5073442;28;20183;-66
2023/11/13 01:32:15;;;;;;;1999.90;999.90;;;7.60;99.90;;;;;;5073551;28;20401;-66
2023/11/13 01:34:41;;;;;;;1999.90;999.90;;;7.70;99.90;;;;;;5073312;28;20171;-66
2023/11/13 01:37:06;;;;;;;1999.90;999.90;;;7.70;99.90;;;;;;5073465;28;20401;-66
2023/11/13 01:39:32;;;;;;;1999.90;999.90;;;7.80;99.90;;;;;;5073140;28;20179;-66
2023/11/13 01:41:58;;;;;;;1999.90;999.90;;;7.80;99.90;;;;;;5073231;28;20225;-66
2023/11/13 01:44:24;;;;;;;1999.90;999.90;;;7.80;99.90;;;;;;5073034;28;20535;-66
2023/11/13 01:46:50;;;;;;;1999.90;999.90;;;7.70;99.90;;;;;;5073158;28;20459;-66
2023/11/13 01:49:19;;;;;;;1999.90;999.90;;;7.80;99.90;;;;;;5073044;28;20421;-66
2023/11/13 01:51:46;;;;;;;1999.90;999.90;;;7.70;99.90;;;;;;5073073;28;20432;-66
2023/11/13 01:54:13;;;;;;;1999.90;999.90;;;7.70;99.90;;;;;;5072747;28;20453;-66
2023/11/13 01:56:39;;;;;;;1999.90;999.90;;;7.80;99.90;;;;;;5073004;28;20402;-65
2023/11/13 01:59:06;;;;;;;1999.90;999.90;;;7.80;99.90;;;;;;5072791;28;20429;-66
2023/11/13 02:01:32;;;;;;;1999.90;999.90;;;7.80;99.90;;;;;;5072875;28;20444;-66
2023/11/13 02:03:58;;;;;;;1999.90;999.90;;;7.80;99.90;;;;;;5072675;28;20435;-65
2023/11/13 02:06:23;;;;;;;1999.90;999.90;;;7.80;99.90;;;;;;5072803;28;20198;-66
2023/11/13 02:08:49;;;;;;;1999.90;999.90;;;7.80;99.90;;;;;;5072561;28;20210;-66
2023/11/13 02:11:16;;;;;;;1999.90;999.90;;;7.80;99.90;;;;;;5072707;28;20249;-67
2023/11/13 02:13:45;;;;;;;1999.90;999.90;;;7.70;99.90;;;;;;5072395;28;20217;-66
2023/11/13 02:16:12;;;;;;;1999.90;999.90;;;7.70;99.90;;;;;;5072669;28;20405;-66
2023/11/13 02:18:38;;;;;;;1999.90;999.90;;;7.70;99.90;;;;;;5072398;28;20502;-66
2023/11/13 02:21:04;;;;;;;1999.90;999.90;;;7.70;99.90;;;;;;5072632;28;20409;-67
2023/11/13 02:23:30;;;;;;;1999.90;999.90;;;7.80;99.90;;;;;;5072223;28;20398;-66
2023/11/13 02:25:56;;;;;;;1999.90;999.90;;;7.60;99.90;;;;;;5072413;28;20822;-66
2023/11/13 02:28:22;;;;;;;1999.90;999.90;;;7.80;99.90;;;;;;5072479;28;20241;-66
2023/11/13 02:30:48;;;;;;;1999.90;999.90;;;8.00;99.90;;;;;;5072349;28;20896;-66
2023/11/13 02:33:14;;;;;;;1999.90;999.90;;;7.90;99.90;;;;;;5072148;28;20209;-66
2023/11/13 02:35:39;;;;;;;1999.90;999.90;;;7.90;99.90;;;;;;5072550;28;20402;-66
2023/11/13 02:38:05;;;;;;;1999.90;999.90;;;8.10;99.90;;;;;;5072390;28;20588;-66
2023/11/13 02:40:31;;;;;;;1999.90;999.90;;;8.00;99.90;;;;;;5072346;28;20221;-66
2023/11/13 02:42:57;;;;;;;1999.90;999.90;;;8.00;99.90;;;;;;5072309;28;20231;-66
2023/11/13 02:45:26;;;;;;;1999.90;999.90;;;8.00;99.90;;;;;;5072399;28;20206;-67
2023/11/13 02:47:52;;;;;;;1999.90;999.90;;;8.00;99.90;;;;;;5054388;28;20163;-67
2023/11/13 02:50:19;;;;;;;1999.90;999.90;;;8.00;99.90;;;;;;5072328;28;20509;-67
2023/11/13 02:52:45;;;;;;;1999.90;999.90;;;8.00;99.90;;;;;;5072377;28;20920;-67
2023/11/13 02:55:10;;;;;;;1999.90;999.90;;;8.00;99.90;;;;;;5071756;28;20448;-67
2023/11/13 02:57:36;;;;;;;1999.90;999.90;;;8.00;99.90;;;;;;5072410;28;20245;-66
2023/11/13 03:00:06;;;;;;;1999.90;999.90;;;8.30;99.90;;;;;;5071852;28;20251;-66
2023/11/13 03:02:32;;;;;;;1999.90;999.90;;;8.00;99.90;;;;;;5072085;28;20173;-66
2023/11/13 03:04:58;;;;;;;1999.90;999.90;;;7.90;99.90;;;;;;5071727;28;20819;-66
2023/11/13 03:07:23;;;;;;;1999.90;999.90;;;8.00;99.90;;;;;;5071842;28;20403;-66
2023/11/13 03:09:49;;;;;;;1999.90;999.90;;;8.00;99.90;;;;;;5071814;28;20210;-66
2023/11/13 03:12:14;;;;;;;1999.90;999.90;;;7.80;99.90;;;;;;5071959;28;20159;-66
2023/11/13 03:14:40;;;;;;;1999.90;999.90;;;8.00;99.90;;;;;;5071688;28;20177;-66
2023/11/13 03:17:06;;;;;;;1999.90;999.90;;;8.00;99.90;;;;;;5071868;28;20579;-67
2023/11/13 03:19:31;;;;;;;1999.90;999.90;;;8.00;99.90;;;;;;5071571;28;20580;-67
2023/11/13 03:21:57;;;;;;;1999.90;999.90;;;7.90;99.90;;;;;;5053878;28;20167;-66
2023/11/13 03:24:22;;;;;;;1999.90;999.90;;;8.20;99.90;;;;;;5071586;28;20175;-66
2023/11/13 03:26:48;;;;;;;1999.90;999.90;;;7.80;99.90;;;;;;5071798;28;20201;-66
2023/11/13 03:29:14;;;;;;;1999.90;999.90;;;8.20;99.90;;;;;;5071893;28;20589;-66
2023/11/13 03:31:39;;;;;;;1999.90;999.90;;;8.00;99.90;;;;;;5071728;28;20193;-66
2023/11/13 03:34:05;;;;;;;1999.90;999.90;;;8.00;99.90;;;;;;5071573;28;20160;-66
2023/11/13 03:36:31;;;;;;;1999.90;999.90;;;8.00;99.90;;;;;;5071721;28;20171;-66
2023/11/13 03:38:56;;;;;;;1999.90;999.90;;;8.10;99.90;;;;;;5071624;28;20209;-66
2023/11/13 03:41:22;;;;;;;1999.90;999.90;;;8.10;99.90;;;;;;5071915;28;20183;-65
2023/11/13 03:43:48;;;;;;;1999.90;999.90;;;8.00;99.90;;;;;;5071537;28;20549;-67
2023/11/13 03:46:13;;;;;;;1999.90;999.90;;;8.00;99.90;;;;;;5071852;28;20194;-66
2023/11/13 03:48:39;;;;;;;1999.90;999.90;;;8.00;99.90;;;;;;5071409;28;20195;-66
2023/11/13 03:51:06;;;;;;;1999.90;999.90;;;8.10;99.90;;;;;;5071399;28;20160;-66
2023/11/13 03:53:34;;;;;;;1999.90;999.90;;;8.10;99.90;;;;;;5071404;28;20190;-65
2023/11/13 03:56:00;;;;;;;1999.90;999.90;;;8.20;99.90;;;;;;5071416;28;20478;-67
2023/11/13 03:58:26;;;;;;;1999.90;999.90;;;8.20;99.90;;;;;;5071658;28;20954;-67
2023/11/13 04:00:51;;;;;;;1999.90;999.90;;;8.20;99.90;;;;;;5071813;28;20402;-67
2023/11/13 04:03:18;;;;;;;1999.90;999.90;;;8.20;99.90;;;;;;5071625;28;20212;-67
2023/11/13 04:05:44;;;;;;;1999.90;999.90;;;8.20;99.90;;;;;;5071688;28;21127;-67
2023/11/13 04:08:09;;;;;;;1999.90;999.90;;;8.30;99.90;;;;;;5056890;28;20172;-67
2023/11/13 04:10:35;;;;;;;1999.90;999.90;;;8.30;99.90;;;;;;5075324;28;20164;-66
2023/11/13 04:13:01;;;;;;;1999.90;999.90;;;8.30;99.90;;;;;;5074994;28;20218;-67
2023/11/13 04:15:27;;;;;;;1999.90;999.90;;;8.30;99.90;;;;;;5075209;28;20165;-66
2023/11/13 04:17:53;;;;;;;1999.90;999.90;;;8.40;99.90;;;;;;5075050;28;20907;-66
2023/11/13 04:20:21;;;;;;;1999.90;999.90;;;8.60;99.90;;;;;;5110996;22;20227;-66
2023/11/13 04:22:47;;;;;;;1999.90;999.90;;;8.40;99.90;;;;;;5078174;28;20298;-65
2023/11/13 04:25:13;;;;;;;1999.90;999.90;;;8.40;99.90;;;;;;5077099;28;20497;-66
2023/11/13 04:27:40;;;;;;;1999.90;999.90;;;8.50;99.90;;;;;;5077472;28;20408;-65
2023/11/13 04:30:07;;;;;;;1999.90;999.90;;;8.50;99.90;;;;;;5062757;28;20200;-65
2023/11/13 04:32:32;;;;;;;1999.90;999.90;;;8.50;99.90;;;;;;5057317;28;20494;-66
2023/11/13 04:34:58;;;;;;;1999.90;999.90;;;8.50;99.90;;;;;;5057196;28;20965;-64
2023/11/13 04:37:24;;;;;;;1999.90;999.90;;;8.50;99.90;;;;;;5057255;28;20175;-66
2023/11/13 04:39:49;;;;;;;1999.90;999.90;;;8.50;99.90;;;;;;5056734;28;20198;-65
2023/11/13 04:42:15;;;;;;;1999.90;999.90;;;8.50;99.90;;;;;;5057015;28;20239;-64
2023/11/13 04:44:40;;;;;;;1999.90;999.90;;;8.50;99.90;;;;;;5056707;28;20782;-65
2023/11/13 04:47:07;;;;;;;1999.90;999.90;;;8.60;99.90;;;;;;5056958;28;20618;-65
2023/11/13 04:49:35;;;;;;;1999.90;999.90;;;8.60;99.90;;;;;;5057043;28;20250;-65
2023/11/13 04:52:01;;;;;;;1999.90;999.90;;;8.60;99.90;;;;;;5056987;28;20495;-65
2023/11/13 04:54:26;;;;;;;1999.90;999.90;;;8.60;99.90;;;;;;5056814;28;20959;-65
2023/11/13 04:56:52;;;;;;;1999.90;999.90;;;8.60;99.90;;;;;;5056875;28;20413;-66
2023/11/13 04:59:18;;;;;;;1999.90;999.90;;;8.70;99.90;;;;;;5056374;28;20208;-64
2023/11/13 05:01:43;;;;;;;1999.90;999.90;;;8.50;99.90;;;;;;5056931;28;20417;-66
2023/11/13 05:04:09;;;;;;;1999.90;999.90;;;8.50;99.90;;;;;;5056278;28;20208;-64
2023/11/13 05:06:35;;;;;;;1999.90;999.90;;;8.60;99.90;;;;;;5056861;28;20212;-66
2023/11/13 05:09:04;;;;;;;1999.90;999.90;;;8.60;99.90;;;;;;5056782;28;20771;-65
2023/11/13 05:11:30;;;;;;;1999.90;999.90;;;8.60;99.90;;;;;;5056580;28;20422;-65
2023/11/13 05:13:56;;;;;;;1999.90;999.90;;;8.60;99.90;;;;;;5056277;28;20443;-66
2023/11/13 05:16:23;;;;;;;1999.90;999.90;;;8.60;99.90;;;;;;5056377;28;20268;-65
2023/11/13 05:18:51;;;;;;;1999.90;999.90;;;8.60;99.90;;;;;;5056243;28;20220;-66
2023/11/13 05:21:20;;;;;;;1999.90;999.90;;;8.60;99.90;;;;;;5056402;28;20428;-66
2023/11/13 05:23:49;;;;;;;1999.90;999.90;;;8.70;99.90;;;;;;5056284;28;20415;-66
2023/11/13 05:26:18;;;;;;;1999.90;999.90;;;8.70;99.90;;;;;;5056430;28;20449;-65
2023/11/13 05:28:44;;;;;;;1999.90;999.90;;;8.70;99.90;;;;;;5056957;28;20803;-67
2023/11/13 05:31:10;;;;;;;1999.90;999.90;;;8.80;99.90;;;;;;5056791;28;20435;-65
2023/11/13 05:33:35;;;;;;;1999.90;999.90;;;8.80;99.90;;;;;;5055888;28;20532;-65
2023/11/13 05:36:01;;;;;;;1999.90;999.90;;;8.80;99.90;;;;;;5054627;28;20190;-64
2023/11/13 05:38:27;;;;;;;1999.90;999.90;;;8.90;99.90;;;;;;5056389;28;20706;-66
2023/11/13 05:40:53;;;;;;;1999.90;999.90;;;8.80;99.90;;;;;;5057339;28;20189;-64
2023/11/13 05:43:18;;;;;;;1999.90;999.90;;;8.80;99.90;;;;;;5037384;28;20415;-65
2023/11/13 05:45:44;;;;;;;1999.90;999.90;;;8.70;99.90;;;;;;5053308;28;20202;-65
2023/11/13 05:48:10;;;;;;;1999.90;999.90;;;8.70;99.90;;;;;;5053623;28;20183;-65
2023/11/13 05:50:35;;;;;;;1999.90;999.90;;;8.60;99.90;;;;;;5055879;28;20197;-65
2023/11/13 05:53:01;;;;;;;1999.90;999.90;;;8.60;99.90;;;;;;5055169;28;20524;-65
2023/11/13 05:55:26;;;;;;;1999.90;999.90;;;8.60;99.90;;;;;;5055154;28;20178;-66
2023/11/13 05:57:52;;;;;;;1999.90;999.90;;;8.60;99.90;;;;;;5055053;28;20168;-64
2023/11/13 06:00:22;;;;;;;1999.90;999.90;;;8.70;99.90;;;;;;5046699;28;20209;-66
2023/11/13 06:02:48;;;;;;;1999.90;999.90;;;8.70;99.90;;;;;;5050684;28;20423;-65
2023/11/13 06:05:15;;;;;;;1999.90;999.90;;;8.60;99.90;;;;;;5057534;28;20828;-65
2023/11/13 06:07:42;;;;;;;1999.90;999.90;;;8.70;99.90;;;;;;5066829;28;20505;-66
2023/11/13 06:10:10;;;;;;;1999.90;999.90;;;9.00;99.90;;;;;;5067295;28;20492;-66
2023/11/13 06:12:39;;;;;;;1999.90;999.90;;;8.80;99.90;;;;;;5047434;28;20508;-66
2023/11/13 06:15:10;;;;;;;1999.90;999.90;;;10.00;99.90;;;;;;5046405;28;20444;-66
2023/11/13 06:17:37;;;;;;;1999.90;999.90;;;8.80;99.90;;;;;;5048631;28;20539;-66
2023/11/13 06:20:03;;;;;;;1999.90;999.90;;;8.70;99.90;;;;;;5064650;28;20444;-66
2023/11/13 06:22:29;;;;;;;1999.90;999.90;;;;;;;;;;5065232;28;20399;-67
2023/11/13 06:24:54;;;;;;;1999.90;999.90;;;8.90;99.90;;;;;;5064907;28;20408;-67
2023/11/13 06:27:20;;;;;;;1999.90;999.90;;;8.90;99.90;;;;;;5063932;28;20423;-67
2023/11/13 06:29:47;;;;;;;1999.90;999.90;;;8.90;99.90;;;;;;5045312;28;20262;-67
2023/11/13 06:32:12;;;;;;;1999.90;999.90;;;8.90;99.90;;;;;;5061987;28;20478;-65
2023/11/13 06:34:38;;;;;;;1999.90;999.90;;;9.00;99.90;;;;;;5063334;28;20237;-67
2023/11/13 06:37:04;;;;;;;1999.90;999.90;;;9.30;99.90;;;;;;5058542;28;20188;-66
2023/11/13 06:39:30;;;;;;;1999.90;999.90;;;9.10;99.90;;;;;;5042590;28;20267;-66
2023/11/13 06:41:55;;;;;;;1999.90;999.90;;;9.00;99.90;;;;;;5042210;28;20409;-65
2023/11/13 06:44:21;;;;;;;1999.90;999.90;;;9.10;99.90;;;;;;5042425;28;20191;-67
2023/11/13 06:46:46;;;;;;;1999.90;999.90;;;9.30;99.90;;;;;;5041779;28;20206;-66
2023/11/13 06:49:13;;;;;;;1999.90;999.90;;;9.20;99.90;;;;;;5059160;28;20287;-67
2023/11/13 06:51:39;;;;;;;1999.90;999.90;;;9.70;99.90;;;;;;5044924;28;20182;-67
2023/11/13 06:54:07;;;;;;;1999.90;999.90;;;9.30;99.90;;;;;;5063178;28;20438;-67
2023/11/13 06:56:33;;;;;;;1999.90;999.90;;;9.30;99.90;;;;;;5061325;28;20209;-67
2023/11/13 06:59:00;;;;;;;1999.90;999.90;;;9.70;99.90;;;;;;5061037;28;20436;-66
2023/11/13 07:01:25;;;;;;;1999.90;999.90;;;9.50;99.90;;;;;;5061940;28;20413;-67
2023/11/13 07:03:51;;;;;;;1999.90;999.90;;;9.50;99.90;;;;;;5052992;28;20431;-67
2023/11/13 07:06:17;;;;;;;1999.90;999.90;;;10.00;99.90;;;;;;5058601;28;20457;-67
2023/11/13 07:08:43;;;;;;;1999.90;999.90;;;9.80;99.90;;;;;;5059218;28;20439;-66
2023/11/13 07:11:11;;;;;;;1999.90;999.90;;;9.70;99.90;;;;;;5059452;28;20172;-67
2023/11/13 07:13:40;;;;;;;1999.90;999.90;;;9.90;99.90;;;;;;5058134;28;20955;-66
2023/11/13 07:16:10;;;;;;;1999.90;999.90;;;9.80;99.90;;;;;;5058034;28;20445;-67
2023/11/13 07:18:36;;;;;;;1999.90;999.90;;;9.90;99.90;;;;;;5056212;28;20460;-67
2023/11/13 07:21:02;;;;;;;1999.90;999.90;;;10.00;99.90;;;;;;5038545;28;20417;-67
2023/11/13 07:23:29;;;;;;;1999.90;999.90;;;10.00;99.90;;;;;;5038541;28;20168;-67
2023/11/13 07:25:55;;;;;;;1999.90;999.90;;;9.80;99.90;;;;;;5036414;28;20897;-66
2023/11/13 07:28:21;;;;;;;1999.90;999.90;;;9.80;99.90;;;;;;5033423;28;20418;-66
2023/11/13 07:30:46;;;;;;;1999.90;999.90;;;9.80;99.90;;;;;;5033343;28;20833;-66
2023/11/13 07:33:12;;;;;;;1999.90;999.90;;;9.90;99.90;;;;;;5033281;28;20531;-66
2023/11/13 07:35:39;;;;;;;1999.90;999.90;;;9.90;99.90;;;;;;5033815;28;20196;-67
2023/11/13 07:38:08;;;;;;;1999.90;999.90;;;9.80;99.90;;;;;;5033842;28;20199;-66
2023/11/13 07:40:35;;;;;;;1999.90;999.90;;;9.90;99.90;;;;;;5043269;28;20834;-66
2023/11/13 07:43:01;;;;;;;1999.90;999.90;;;10.00;99.90;;;;;;5056607;28;20499;-66
2023/11/13 07:45:28;;;;;;;1999.90;999.90;;;10.00;99.90;;;;;;5056379;28;20460;-66
2023/11/13 07:47:56;;;;;;;1999.90;999.90;;;10.00;99.90;;;;;;5057113;28;20428;-67
2023/11/13 07:50:22;;;;;;;1999.90;999.90;;;10.00;99.90;;;;;;5056804;28;20795;-66
2023/11/13 07:52:48;;;;;;;1999.90;999.90;;;10.20;99.90;;;;;;5053368;28;20409;-66
2023/11/13 07:55:14;;;;;;;1999.90;999.90;;;10.10;99.90;;;;;;5052001;28;20492;-67
2023/11/13 07:57:41;;;;;;;1999.90;999.90;;;10.20;99.90;;;;;;5056109;28;20182;-66
2023/11/13 08:00:13;;;;;;;1999.90;999.90;;;10.30;99.90;;;;;;5056519;28;20433;-66
2023/11/13 08:02:40;;;;;;;1999.90;999.90;;;10.30;99.90;;;;;;5056586;28;20428;-66
2023/11/13 08:05:06;;;;;;;1999.90;999.90;;;10.10;99.90;;;;;;5048297;28;20513;-66
2023/11/13 08:07:32;;;;;;;1999.90;999.90;;;10.30;99.90;;;;;;5056341;28;20428;-66
2023/11/13 08:10:01;;;;;;;1999.90;999.90;;;10.40;99.90;;;;;;5056133;28;20430;-65
2023/11/13 08:12:27;;;;;;;1999.90;999.90;;;10.30;99.90;;;;;;5055892;28;20648;-65
2023/11/13 08:14:54;;;;;;;1999.90;999.90;;;10.30;99.90;;;;;;5055920;28;20413;-66
2023/11/13 08:17:20;;;;;;;1999.90;999.90;;;10.30;99.90;;;;;;5052882;28;20491;-66
2023/11/13 08:19:46;;;;;;;1999.90;999.90;;;10.40;99.90;;;;;;5055867;28;20297;-67
2023/11/13 08:22:11;;;;;;;1999.90;999.90;;;10.30;99.90;;;;;;5056650;28;20414;-67
2023/11/13 08:24:37;;;;;;;1999.90;999.90;;;10.30;99.90;;;;;;5056751;28;20541;-66
2023/11/13 08:27:05;;;;;;;1999.90;999.90;;;10.40;99.90;;;;;;5056492;28;20315;-66
2023/11/13 08:29:32;;;;;;;1999.90;999.90;;;10.20;99.90;;;;;;5056399;28;20705;-67
2023/11/13 08:31:58;;;;;;;1999.90;999.90;;;10.30;99.90;;;;;;5056196;28;20442;-67
2023/11/13 08:34:23;;;;;;;1999.90;999.90;;;10.40;99.90;;;;;;5056450;28;20909;-66
2023/11/13 08:36:50;;;;;;;1999.90;999.90;;;10.40;99.90;;;;;;5056350;28;20177;-66
2023/11/13 08:39:21;;;;;;;1999.90;999.90;;;10.30;99.90;;;;;;5055827;28;20235;-66
2023/11/13 08:41:47;;;;;;;1999.90;999.90;;;10.40;99.90;;;;;;5056054;28;20935;-66
2023/11/13 08:44:13;;;;;;;1999.90;999.90;;;10.40;99.90;;;;;;5055795;28;20398;-66
2023/11/13 08:46:40;;;;;;;1999.90;999.90;;;10.30;99.90;;;;;;5056562;28;20206;-66
2023/11/13 08:49:06;;;;;;;1999.90;999.90;;;10.40;99.90;;;;;;5055681;28;20429;-67
2023/11/13 08:51:33;;;;;;;1999.90;999.90;;;10.30;99.90;;;;;;5055890;28;20744;-66
2023/11/13 08:54:00;;;;;;;1999.90;999.90;;;10.30;99.90;;;;;;5055072;28;20175;-66
2023/11/13 08:56:26;;;;;;;1999.90;999.90;;;10.30;99.90;;;;;;5056010;28;20787;-66
2023/11/13 08:58:54;;;;;;;1999.90;999.90;;;10.50;99.90;;;;;;5056080;28;20471;-66
2023/11/13 09:01:25;;;;;;;1999.90;999.90;;;10.50;99.90;;;;;;5056094;28;20776;-66
2023/11/13 09:03:59;;;;;;;1999.90;999.90;;;10.30;99.90;;;;;;5055937;28;20409;-66
2023/11/13 09:06:25;;;;;;;1999.90;999.90;;;10.40;99.90;;;;;;5055532;28;20550;-67
2023/11/13 09:08:53;;;;;;;1999.90;999.90;;;10.30;99.90;;;;;;5055731;28;20460;-66
2023/11/13 09:11:21;;;;;;;1999.90;999.90;;;10.50;99.90;;;;;;5055580;28;20164;-66
2023/11/13 09:13:46;;;;;;;1999.90;999.90;;;10.30;99.90;;;;;;5055301;28;20802;-67
2023/11/13 09:16:14;;;;;;;1999.90;999.90;;;10.40;99.90;;;;;;5055433;28;20407;-66
2023/11/13 09:18:40;;;;;;;1999.90;999.90;;;10.40;99.90;;;;;;5054062;28;20175;-66
2023/11/13 09:21:06;;;;;;;1999.90;999.90;;;10.40;99.90;;;;;;5054138;28;20416;-67
2023/11/13 09:23:32;;;;;;;1999.90;999.90;;;10.50;99.90;;;;;;5054311;28;20416;-67
2023/11/13 09:25:57;;;;;;;1999.90;999.90;;;10.40;99.90;;;;;;5054194;28;20226;-66
2023/11/13 09:28:23;;;;;;;1999.90;999.90;;;10.30;99.90;;;;;;5054145;28;20512;-66
2023/11/13 09:30:49;;;;;;;1999.90;999.90;;;10.40;99.90;;;;;;5053668;28;20202;-65
2023/11/13 09:33:17;;;;;;;1999.90;999.90;;;10.40;99.90;;;;;;5053024;28;20424;-66
2023/11/13 09:35:42;;;;;;;1999.90;999.90;;;10.30;99.90;;;;;;5054074;28;20925;-66
2023/11/13 09:38:09;;;;;;;1999.90;999.90;;;10.10;99.90;;;;;;5053901;28;20413;-66
2023/11/13 09:40:35;;;;;;;1999.90;999.90;;;10.20;99.90;;;;;;5053930;28;20396;-67
2023/11/13 09:43:14;;;;;;;1999.90;999.90;;;10.20;99.90;;;;;;5053317;28;20507;-67
2023/11/13 09:45:50;;;;;;;1999.90;999.90;;;10.20;99.90;;;;;;5053443;28;20211;-67
2023/11/13 09:48:29;;;;;;;1999.90;999.90;;;10.40;99.90;;;;;;5052525;28;20423;-67
2023/11/13 09:50:58;;;;;;;1999.90;999.90;;;10.60;99.90;;;;;;5053014;28;20896;-67
2023/11/13 09:53:26;;;;;;;1999.90;999.90;;;10.60;99.90;;;;;;5042631;28;20414;-66
2023/11/13 09:55:53;;;;;;;1999.90;999.90;;;10.70;99.90;;;;;;5039279;28;20448;-66
2023/11/13 09:58:19;;;;;;;1999.90;999.90;;;10.70;99.90;;;;;;5048765;28;20414;-66
2023/11/13 10:00:45;;;;;;;1999.90;999.90;;;10.60;99.90;;;;;;5047957;28;20831;-67
2023/11/13 10:03:14;;;;;;;1999.90;999.90;;;10.90;99.90;;;;;;5047640;28;20428;-64
2023/11/13 10:05:40;;;;;;;1999.90;999.90;;;10.90;99.90;;;;;;5047617;28;20464;-66
2023/11/13 10:08:06;;;;;;;1999.90;999.90;;;10.90;99.90;;;;;;5048085;28;20796;-66
2023/11/13 10:10:32;;;;;;;1999.90;999.90;;;11.10;99.90;;;;;;5047662;28;20437;-64
2023/11/13 10:13:04;;;;;;;1999.90;999.90;;;11.20;99.90;;;;;;5048640;28;20166;-64
2023/11/13 10:15:36;;;;;;;1999.90;999.90;;;11.10;99.90;;;;;;5048157;28;20410;-65
2023/11/13 10:18:12;;;;;;;1999.90;999.90;;;11.20;99.90;;;;;;5047609;28;20491;-66
2023/11/13 10:20:45;;;;;;;1999.90;999.90;;;11.20;99.90;;;;;;5075046;22;20503;-66
2023/11/13 10:23:14;;;;;;;1999.90;999.90;;;11.20;99.90;;;;;;5068004;28;20432;-66
2023/11/13 10:25:53;;;;;;;1999.90;999.90;;;11.20;99.90;;;;;;5068191;28;20461;-67
2023/11/13 10:28:24;;;;;;;1999.90;999.90;;;11.20;99.90;;;;;;5068254;28;20427;-66
2023/11/13 10:30:58;;;;;;;1999.90;999.90;;;11.30;99.90;;;;;;5068378;28;20428;-66
2023/11/13 10:33:24;;;;;;;1999.90;999.90;;;11.30;99.90;;;;;;5052137;28;20413;-65
2023/11/13 10:35:52;;;;;;;1999.90;999.90;;;11.40;99.90;;;;;;5055244;28;20422;-66
2023/11/13 10:38:20;;;;;;;1999.90;999.90;;;11.40;99.90;;;;;;5048205;28;20875;-65
2023/11/13 10:41:14;;;;;;;1999.90;999.90;;;11.60;99.90;;;;;;5048620;28;20705;-67
2023/11/13 10:43:40;;;;;;;1999.90;999.90;;;11.50;99.90;;;;;;5044850;28;20422;-66
2023/11/13 10:46:07;;;;;;;1999.90;999.90;;;11.00;99.90;;;;;;5048232;28;20519;-65
2023/11/13 10:48:43;;;;;;;1999.90;999.90;;;11.60;99.90;;;;;;5048105;28;20172;-65
2023/11/13 10:51:13;;;;;;;1999.90;999.90;;;11.70;99.90;;;;;;5046222;28;20503;-66
2023/11/13 10:53:46;;;;;;;1999.90;999.90;;;11.80;99.90;;;;;;5054196;28;20416;-67
2023/11/13 10:56:15;;;;;;;1999.90;999.90;;;11.90;99.90;;;;;;5038090;28;20468;-67
2023/11/13 10:58:42;;;;;;;1999.90;999.90;;;12.00;99.90;;;;;;5065450;28;20410;-66
2023/11/13 11:01:13;;;;;;;1999.90;999.90;;;12.10;99.90;;;;;;5052186;28;20444;-66
2023/11/13 11:03:43;;;;;;;1999.90;999.90;;;12.10;99.90;;;;;;5053219;28;20418;-66
2023/11/13 11:06:14;;;;;;;1999.90;999.90;;;12.30;99.90;;;;;;5069030;28;20456;-67
2023/11/13 11:08:43;;;;;;;1999.90;999.90;;;12.40;99.90;;;;;;5066540;28;20451;-67
2023/11/13 11:11:11;;;;;;;1999.90;999.90;;;12.40;99.90;;;;;;5071602;28;20935;-66
2023/11/13 11:13:43;;;;;;;1999.90;999.90;;;12.40;99.90;;;;;;5050923;28;20412;-66
2023/11/13 11:16:45;;;;;;;1999.90;999.90;;;12.40;99.90;;;;;;5061474;28;20482;-66
2023/11/13 11:19:28;;;;;;;1999.90;999.90;;;12.30;99.90;;;;;;5008978;28;20422;-67
2023/11/13 11:22:09;;;;;;;1999.90;999.90;;;12.50;99.90;;;;;;5050504;28;20425;-66
2023/11/13 11:25:11;;;;;;;1999.90;999.90;;;12.60;99.90;;;;;;5050531;28;20867;-66
2023/11/13 11:27:41;;;;;;;1999.90;999.90;;;12.60;99.90;;;;;;5056056;28;20420;-66
2023/11/13 11:30:20;;;;;;;1999.90;999.90;;;12.70;99.90;;;;;;5057916;28;20807;-65
2023/11/13 11:32:56;;;;;;;1999.90;999.90;;;12.80;99.90;;;;;;5051181;28;20419;-66
2023/11/13 11:35:23;;;;;;;1999.90;999.90;;;13.00;99.90;;;;;;5050045;28;20780;-66
2023/11/13 11:38:14;;;;;;;1999.90;999.90;;;13.20;99.90;;;;;;5047425;28;20409;-66
2023/11/13 11:40:40;;;;;;;1999.90;999.90;;;13.50;99.90;;;;;;5046994;28;20450;-66
2023/11/13 11:43:08;;;;;;;1999.90;999.90;;;13.70;99.90;;;;;;5047816;28;20442;-66
2023/11/13 11:45:38;;;;;;;1999.90;999.90;;;13.90;99.90;;;;;;5050901;28;20539;-66
2023/11/13 11:48:06;;;;;;;1999.90;999.90;;;14.00;99.90;;;;;;5030643;28;20426;-66
2023/11/13 11:50:32;;;;;;;1999.90;999.90;;;14.10;99.90;;;;;;5047634;28;20570;-65
2023/11/13 11:52:57;;;;;;;1999.90;999.90;;;14.20;99.90;;;;;;5048410;28;20496;-66
2023/11/13 11:55:25;;;;;;;1999.90;999.90;;;14.20;99.90;;;;;;5052291;28;20186;-67
2023/11/13 11:57:52;;;;;;;1999.90;999.90;;;14.20;99.90;;;;;;5048375;28;20182;-66
2023/11/13 12:00:19;;;;;;;1999.90;999.90;;;14.30;99.90;;;;;;5048498;28;20807;-66
2023/11/13 12:02:53;;;;;;;1999.90;999.90;;;14.40;99.90;;;;;;5047199;28;20408;-66
2023/11/13 12:05:22;;;;;;;1999.90;999.90;;;14.50;99.90;;;;;;5048572;28;20506;-66
2023/11/13 12:07:50;;;;;;;1999.90;999.90;;;14.50;99.90;;;;;;5048837;28;21035;-66